createdAt,value
2018-12-26T00:00:25.457Z,18.27
2018-12-26T00:02:55.881Z,16.00
2018-12-26T00:05:26.237Z,15.13
2018-12-26T00:07:57.931Z,14.30
2018-12-26T00:10:28.255Z,15.03
2018-12-26T00:12:58.629Z,14.33
2018-12-26T00:15:29.111Z,15.17
2018-12-26T00:17:59.455Z,15.40
2018-12-26T00:20:29.739Z,15.97
2018-12-26T00:23:00.011Z,15.80
2018-12-26T00:25:30.298Z,15.03
2018-12-26T00:28:00.639Z,14.00
2018-12-26T00:30:31.038Z,14.90
2018-12-26T00:33:01.438Z,13.83
2018-12-26T00:35:31.708Z,13.63
2018-12-26T00:38:02.022Z,14.37
2018-12-26T00:40:32.326Z,13.93
2018-12-26T00:43:02.638Z,12.67
2018-12-26T00:45:32.902Z,11.97
2018-12-26T00:48:03.240Z,10.90
2018-12-26T00:50:33.486Z,12.07
2018-12-26T00:53:03.823Z,12.13
2018-12-26T00:55:34.062Z,11.57
2018-12-26T00:58:04.357Z,12.87
2018-12-26T01:00:34.552Z,12.97
2018-12-26T01:03:04.876Z,13.67
2018-12-26T01:05:35.162Z,13.23
2018-12-26T01:08:05.465Z,12.77
2018-12-26T01:10:35.694Z,13.07
2018-12-26T01:13:06.078Z,13.10
2018-12-26T01:15:36.359Z,12.37
2018-12-26T01:18:06.654Z,12.23
2018-12-26T01:20:36.919Z,12.30
2018-12-26T01:23:07.307Z,12.73
2018-12-26T01:25:37.642Z,12.57
2018-12-26T01:28:07.933Z,11.27
2018-12-26T01:30:38.334Z,11.87
2018-12-26T01:33:09.215Z,11.90
2018-12-26T01:35:39.675Z,13.40
2018-12-26T01:38:10.161Z,11.13
2018-12-26T01:40:40.562Z,12.70
2018-12-26T01:43:10.910Z,13.10
2018-12-26T01:45:41.266Z,12.23
2018-12-26T01:48:11.552Z,12.17
2018-12-26T01:50:41.836Z,13.00
2018-12-26T01:53:12.079Z,12.20
2018-12-26T01:55:42.352Z,10.77
2018-12-26T01:58:12.572Z,11.63
2018-12-26T02:00:42.874Z,12.43
2018-12-26T02:03:13.171Z,12.07
2018-12-26T02:05:43.418Z,12.27
2018-12-26T02:08:13.776Z,12.47
2018-12-26T02:10:44.126Z,12.57
2018-12-26T02:13:14.472Z,13.27
2018-12-26T02:15:44.769Z,13.07
2018-12-26T02:18:15.072Z,13.23
2018-12-26T02:20:45.328Z,13.20
2018-12-26T02:23:15.603Z,12.80
2018-12-26T02:25:45.955Z,13.20
2018-12-26T02:28:16.327Z,13.47
2018-12-26T02:30:46.576Z,13.57
2018-12-26T02:33:16.967Z,13.20
2018-12-26T02:35:47.231Z,14.03
2018-12-26T02:38:17.550Z,13.80
2018-12-26T02:40:47.819Z,15.07
2018-12-26T02:43:18.170Z,14.23
2018-12-26T02:45:48.449Z,14.60
2018-12-26T02:48:18.801Z,13.67
2018-12-26T02:50:49.176Z,14.70
2018-12-26T02:53:19.512Z,13.50
2018-12-26T02:55:49.770Z,14.47
2018-12-26T02:58:20.945Z,14.50
2018-12-26T03:00:51.265Z,14.10
2018-12-26T03:03:21.562Z,14.90
2018-12-26T03:05:51.815Z,15.17
2018-12-26T03:08:22.108Z,14.20
2018-12-26T03:10:52.429Z,14.47
2018-12-26T03:13:22.686Z,13.90
2018-12-26T03:15:53.018Z,13.37
2018-12-26T03:18:23.434Z,13.67
2018-12-26T03:20:53.768Z,13.23
2018-12-26T03:23:26.029Z,13.03
2018-12-26T03:25:56.241Z,11.67
2018-12-26T03:28:26.550Z,11.90
2018-12-26T03:30:56.901Z,13.17
2018-12-26T03:33:27.252Z,11.97
2018-12-26T03:35:57.541Z,12.00
2018-12-26T03:38:28.862Z,11.97
2018-12-26T03:40:59.443Z,10.67
2018-12-26T03:43:29.991Z,12.03
2018-12-26T03:46:00.682Z,11.83
2018-12-26T03:48:31.538Z,12.10
2018-12-26T03:51:01.916Z,12.77
2018-12-26T03:53:32.178Z,14.00
2018-12-26T03:56:02.664Z,13.97
2018-12-26T03:58:33.015Z,14.73
2018-12-26T04:01:03.410Z,12.53
2018-12-26T04:03:33.772Z,12.97
2018-12-26T04:06:04.059Z,13.03
2018-12-26T04:08:34.666Z,12.80
2018-12-26T04:11:05.126Z,13.20
2018-12-26T04:13:35.723Z,12.50
2018-12-26T04:16:06.032Z,13.10
2018-12-26T04:18:36.414Z,13.07
2018-12-26T04:21:06.673Z,13.87
2018-12-26T04:23:37.026Z,14.30
2018-12-26T04:26:07.378Z,14.00
2018-12-26T04:28:37.830Z,12.80
2018-12-26T04:31:08.111Z,13.10
2018-12-26T04:33:38.450Z,14.13
2018-12-26T04:36:08.747Z,12.60
2018-12-26T04:38:39.068Z,11.43
2018-12-26T04:41:09.526Z,11.57
2018-12-26T04:43:39.878Z,12.10
2018-12-26T04:46:10.214Z,10.73
2018-12-26T04:48:40.557Z,10.23
2018-12-26T04:51:10.846Z,8.77
2018-12-26T04:53:41.174Z,10.20
2018-12-26T04:56:11.404Z,8.50
2018-12-26T04:58:41.761Z,8.47
2018-12-26T05:01:12.116Z,9.60
2018-12-26T05:03:42.448Z,8.63
2018-12-26T05:06:12.778Z,9.13
2018-12-26T05:08:43.482Z,7.80
2018-12-26T05:11:13.810Z,8.50
2018-12-26T05:13:44.081Z,7.50
2018-12-26T05:16:14.352Z,8.20
2018-12-26T05:18:44.868Z,6.57
2018-12-26T05:21:15.233Z,8.20
2018-12-26T05:23:45.876Z,7.27
2018-12-26T05:26:16.202Z,7.00
2018-12-26T05:28:46.443Z,6.80
2018-12-26T05:31:16.794Z,6.83
2018-12-26T05:33:47.079Z,6.67
2018-12-26T05:36:17.546Z,7.47
2018-12-26T05:38:47.930Z,6.53
2018-12-26T05:41:19.339Z,6.77
2018-12-26T05:43:49.864Z,7.07
2018-12-26T05:46:20.101Z,5.87
2018-12-26T05:48:50.400Z,6.83
2018-12-26T05:51:20.748Z,7.50
2018-12-26T05:53:51.207Z,6.67
2018-12-26T05:56:21.529Z,6.87
2018-12-26T05:58:51.850Z,7.13
2018-12-26T06:01:22.324Z,7.57
2018-12-26T06:03:52.602Z,7.23
2018-12-26T06:06:24.015Z,6.40
2018-12-26T06:08:54.379Z,7.90
2018-12-26T06:11:24.695Z,6.37
2018-12-26T06:13:55.024Z,6.70
2018-12-26T06:16:25.397Z,6.87
2018-12-26T06:18:55.663Z,7.27
2018-12-26T06:21:26.014Z,7.03
2018-12-26T06:23:56.298Z,7.00
2018-12-26T06:26:26.641Z,6.00
2018-12-26T06:28:56.948Z,7.20
2018-12-26T06:31:27.480Z,6.93
2018-12-26T06:33:57.844Z,6.90
2018-12-26T06:36:28.262Z,6.80
2018-12-26T06:38:58.680Z,6.47
2018-12-26T06:41:29.029Z,6.40
2018-12-26T06:43:59.368Z,6.70
2018-12-26T06:46:29.747Z,6.37
2018-12-26T06:48:59.961Z,6.27
2018-12-26T06:51:30.312Z,6.40
2018-12-26T06:54:00.605Z,5.80
2018-12-26T06:56:31.306Z,6.60
2018-12-26T06:59:01.581Z,6.80
2018-12-26T07:01:33.196Z,5.57
2018-12-26T07:04:03.474Z,6.40
2018-12-26T07:06:33.739Z,5.90
2018-12-26T07:09:04.537Z,7.03
2018-12-26T07:11:34.835Z,5.93
2018-12-26T07:14:05.420Z,6.67
2018-12-26T07:16:35.746Z,6.63
2018-12-26T07:19:06.027Z,6.63
2018-12-26T07:21:36.402Z,6.43
2018-12-26T07:24:06.712Z,7.43
2018-12-26T07:26:37.065Z,7.53
2018-12-26T07:29:07.334Z,7.20
2018-12-26T07:31:37.619Z,7.87
2018-12-26T07:34:07.875Z,6.93
2018-12-26T07:36:38.159Z,7.47
2018-12-26T07:39:08.870Z,7.77
2018-12-26T07:41:39.294Z,7.87
2018-12-26T07:44:09.559Z,7.77
2018-12-26T07:46:39.842Z,8.33
2018-12-26T07:49:10.185Z,8.10
2018-12-26T07:51:40.384Z,7.83
2018-12-26T07:54:10.739Z,9.07
2018-12-26T07:56:41.041Z,8.47
2018-12-26T07:59:11.422Z,8.07
2018-12-26T08:01:41.723Z,8.40
2018-12-26T08:04:11.983Z,8.20
2018-12-26T08:06:42.340Z,7.40
2018-12-26T08:09:12.939Z,8.63
2018-12-26T08:11:43.255Z,7.83
2018-12-26T08:14:13.521Z,8.27
2018-12-26T08:16:43.872Z,8.83
2018-12-26T08:19:14.170Z,8.27
2018-12-26T08:21:44.469Z,8.40
2018-12-26T08:24:14.763Z,8.00
2018-12-26T08:26:45.064Z,7.73
2018-12-26T08:29:15.369Z,8.23
2018-12-26T08:31:45.630Z,8.57
2018-12-26T08:34:15.897Z,7.80
2018-12-26T08:36:46.270Z,7.73
2018-12-26T08:39:16.511Z,7.17
2018-12-26T08:41:46.896Z,7.23
2018-12-26T08:44:17.126Z,7.77
2018-12-26T08:46:47.440Z,7.40
2018-12-26T08:49:17.690Z,7.10
2018-12-26T08:51:48.034Z,7.57
2018-12-26T08:54:18.303Z,7.47
2018-12-26T08:56:48.607Z,7.80
2018-12-26T08:59:18.885Z,7.57
2018-12-26T09:01:49.178Z,6.90
2018-12-26T09:04:19.459Z,7.20
2018-12-26T09:06:49.809Z,7.80
2018-12-26T09:09:20.084Z,8.13
2018-12-26T09:11:50.375Z,7.97
2018-12-26T09:14:20.647Z,8.20
2018-12-26T09:16:50.993Z,8.10
2018-12-26T09:19:21.363Z,8.27
2018-12-26T09:21:51.580Z,7.67
2018-12-26T09:24:21.868Z,7.10
2018-12-26T09:26:52.209Z,8.03
2018-12-26T09:29:22.469Z,7.73
2018-12-26T09:31:52.768Z,9.30
2018-12-26T09:34:23.051Z,7.70
2018-12-26T09:36:53.331Z,8.73
2018-12-26T09:39:23.758Z,8.43
2018-12-26T09:41:54.058Z,7.73
2018-12-26T09:44:24.327Z,7.77
2018-12-26T09:46:54.763Z,8.97
2018-12-26T09:49:25.050Z,8.40
2018-12-26T09:51:55.288Z,8.83
2018-12-26T09:54:25.613Z,7.83
2018-12-26T09:56:56.885Z,7.50
2018-12-26T09:59:27.156Z,7.27
2018-12-26T10:01:57.470Z,8.13
2018-12-26T10:04:27.727Z,6.63
2018-12-26T10:06:59.943Z,7.60
2018-12-26T10:09:29.920Z,7.97
2018-12-26T10:12:01.362Z,7.00
2018-12-26T10:14:31.831Z,7.17
2018-12-26T10:17:02.206Z,7.43
2018-12-26T10:19:32.773Z,7.07
2018-12-26T10:22:02.989Z,7.53
2018-12-26T10:24:33.266Z,7.57
2018-12-26T10:27:03.647Z,6.83
2018-12-26T10:29:33.949Z,6.50
2018-12-26T10:32:04.162Z,6.40
2018-12-26T10:34:34.464Z,6.17
2018-12-26T10:37:04.934Z,6.30
2018-12-26T10:39:35.246Z,6.37
2018-12-26T10:42:05.580Z,7.00
2018-12-26T10:44:35.856Z,6.07
2018-12-26T10:47:06.158Z,5.77
2018-12-26T10:49:36.429Z,6.50
2018-12-26T10:52:07.010Z,6.23
2018-12-26T10:54:37.282Z,5.20
2018-12-26T10:57:07.689Z,5.90
2018-12-26T10:59:37.904Z,5.83
2018-12-26T11:02:08.228Z,6.33
2018-12-26T11:04:38.762Z,5.53
2018-12-26T11:07:09.121Z,6.70
2018-12-26T11:09:39.493Z,5.37
2018-12-26T11:12:09.830Z,5.73
2018-12-26T11:14:40.218Z,5.43
2018-12-26T11:17:10.504Z,5.33
2018-12-26T11:19:41.096Z,4.87
2018-12-26T11:22:11.371Z,5.80
2018-12-26T11:24:41.684Z,5.57
2018-12-26T11:27:12.016Z,4.50
2018-12-26T11:29:42.327Z,5.40
2018-12-26T11:32:12.675Z,5.30
2018-12-26T11:34:43.123Z,5.87
2018-12-26T11:37:13.464Z,5.90
2018-12-26T11:39:43.969Z,5.87
2018-12-26T11:42:14.268Z,5.77
2018-12-26T11:44:44.836Z,5.50
2018-12-26T11:47:15.148Z,5.10
2018-12-26T11:49:45.524Z,4.80
2018-12-26T11:52:15.836Z,5.53
2018-12-26T11:54:46.236Z,5.93
2018-12-26T11:57:16.773Z,5.60
2018-12-26T11:59:47.397Z,5.20
2018-12-26T12:02:20.755Z,4.97
2018-12-26T12:04:49.933Z,5.07
2018-12-26T12:07:20.196Z,5.77
2018-12-26T12:09:50.668Z,5.47
2018-12-26T12:12:20.914Z,4.47
2018-12-26T12:14:51.413Z,5.50
2018-12-26T12:17:21.744Z,5.10
2018-12-26T12:19:52.192Z,5.10
2018-12-26T12:22:22.518Z,6.07
2018-12-26T12:24:52.928Z,5.53
2018-12-26T12:27:23.520Z,5.00
2018-12-26T12:29:53.907Z,5.83
2018-12-26T12:32:24.321Z,5.97
2018-12-26T12:34:54.733Z,5.57
2018-12-26T12:37:25.148Z,6.03
2018-12-26T12:39:55.826Z,5.10
2018-12-26T12:42:26.202Z,5.57
2018-12-26T12:44:56.531Z,6.30
2018-12-26T12:47:26.723Z,5.47
2018-12-26T12:49:57.019Z,5.20
2018-12-26T12:52:27.224Z,5.30
2018-12-26T12:54:57.610Z,5.40
2018-12-26T12:57:28.051Z,5.37
2018-12-26T12:59:58.503Z,5.20
2018-12-26T13:02:28.785Z,5.67
2018-12-26T13:04:59.133Z,5.43
2018-12-26T13:07:29.426Z,5.13
2018-12-26T13:09:59.717Z,4.97
2018-12-26T13:12:30.014Z,5.07
2018-12-26T13:15:00.319Z,5.20
2018-12-26T13:17:30.682Z,5.27
2018-12-26T13:20:01.170Z,5.10
2018-12-26T13:22:31.407Z,5.80
2018-12-26T13:25:01.816Z,4.77
2018-12-26T13:27:32.216Z,4.97
2018-12-26T13:30:02.471Z,4.93
2018-12-26T13:32:32.973Z,4.57
2018-12-26T13:35:03.297Z,5.13
2018-12-26T13:37:41.172Z,5.03
2018-12-26T13:40:11.453Z,4.73
2018-12-26T13:42:42.126Z,5.43
2018-12-26T13:45:12.417Z,5.10
2018-12-26T13:47:42.798Z,5.20
2018-12-26T13:50:13.393Z,4.50
2018-12-26T13:52:43.925Z,5.33
2018-12-26T13:55:14.312Z,4.23
2018-12-26T13:57:44.695Z,4.23
2018-12-26T14:00:14.963Z,4.50
2018-12-26T14:02:45.370Z,4.63
2018-12-26T14:05:15.529Z,4.10
2018-12-26T14:07:46.021Z,4.37
2018-12-26T14:10:16.459Z,4.60
2018-12-26T14:12:46.870Z,4.20
2018-12-26T14:15:18.426Z,4.50
2018-12-26T14:17:48.774Z,4.63
2018-12-26T14:20:19.120Z,3.90
2018-12-26T14:22:49.436Z,5.23
2018-12-26T14:25:19.904Z,4.50
2018-12-26T14:27:50.189Z,4.90
2018-12-26T14:30:20.672Z,4.83
2018-12-26T14:32:50.898Z,5.50
2018-12-26T14:35:21.189Z,4.87
2018-12-26T14:37:51.498Z,4.40
2018-12-26T14:40:21.879Z,5.43
2018-12-26T14:42:52.156Z,5.60
2018-12-26T14:45:22.485Z,5.37
2018-12-26T14:47:52.742Z,5.93
2018-12-26T14:50:23.632Z,5.13
2018-12-26T14:52:55.474Z,4.60
2018-12-26T14:55:25.976Z,5.20
2018-12-26T14:57:56.240Z,5.03
2018-12-26T15:00:26.524Z,5.53
2018-12-26T15:02:57.223Z,5.40
2018-12-26T15:05:27.500Z,5.40
2018-12-26T15:07:57.807Z,4.93
2018-12-26T15:10:28.129Z,5.03
2018-12-26T15:12:58.506Z,5.33
2018-12-26T15:15:28.878Z,4.90
2018-12-26T15:17:59.323Z,5.63
2018-12-26T15:20:29.633Z,4.87
2018-12-26T15:22:59.924Z,5.20
2018-12-26T15:25:30.363Z,5.40
2018-12-26T15:28:00.911Z,5.40
2018-12-26T15:30:31.231Z,5.57
2018-12-26T15:33:01.703Z,5.27
2018-12-26T15:35:33.190Z,4.67
2018-12-26T15:38:03.511Z,4.87
2018-12-26T15:40:34.305Z,5.30
2018-12-26T15:43:04.781Z,5.03
2018-12-26T15:45:35.053Z,5.07
2018-12-26T15:48:05.466Z,5.27
2018-12-26T15:50:35.715Z,5.10
2018-12-26T15:53:06.055Z,4.30
2018-12-26T15:55:36.382Z,4.17
2018-12-26T15:58:06.757Z,4.90
2018-12-26T16:00:37.771Z,4.50
2018-12-26T16:03:08.385Z,4.23
2018-12-26T16:05:38.737Z,4.93
2018-12-26T16:08:09.079Z,5.20
2018-12-26T16:10:39.359Z,4.20
2018-12-26T16:13:09.699Z,4.17
2018-12-26T16:15:40.061Z,4.10
2018-12-26T16:18:10.435Z,4.93
2018-12-26T16:20:40.724Z,4.77
2018-12-26T16:23:11.043Z,4.83
2018-12-26T16:25:41.298Z,5.03
2018-12-26T16:28:11.859Z,4.97
2018-12-26T16:30:46.174Z,5.50
2018-12-26T16:33:14.148Z,5.47
2018-12-26T16:35:44.442Z,4.97
2018-12-26T16:38:14.777Z,4.97
2018-12-26T16:40:45.015Z,5.00
2018-12-26T16:43:15.307Z,4.53
2018-12-26T16:45:45.697Z,5.10
2018-12-26T16:48:16.009Z,5.23
2018-12-26T16:50:46.275Z,4.80
2018-12-26T16:53:16.615Z,5.43
2018-12-26T16:55:46.995Z,5.33
2018-12-26T16:58:17.328Z,5.30
2018-12-26T17:00:54.983Z,4.67
2018-12-26T17:03:19.589Z,5.00
2018-12-26T17:05:49.843Z,5.73
2018-12-26T17:08:20.058Z,5.17
2018-12-26T17:10:51.809Z,4.67
2018-12-26T17:13:22.177Z,5.27
2018-12-26T17:15:52.528Z,4.70
2018-12-26T17:18:22.988Z,5.20
2018-12-26T17:20:53.251Z,4.17
2018-12-26T17:23:23.651Z,5.00
2018-12-26T17:25:53.993Z,4.93
2018-12-26T17:28:24.301Z,5.07
2018-12-26T17:30:54.604Z,4.73
2018-12-26T17:33:24.969Z,5.73
2018-12-26T17:35:56.338Z,4.87
2018-12-26T17:38:26.741Z,4.20
2018-12-26T17:40:57.205Z,4.40
2018-12-26T17:43:27.709Z,4.97
2018-12-26T17:45:57.963Z,4.03
2018-12-26T17:48:28.368Z,4.53
2018-12-26T17:51:01.460Z,4.73
2018-12-26T17:54:25.331Z,5.10
2018-12-26T17:57:08.265Z,4.57
2018-12-26T17:59:46.634Z,5.37
2018-12-26T18:02:32.948Z,4.87
2018-12-26T18:05:04.404Z,5.30
2018-12-26T18:07:34.776Z,6.20
2018-12-26T18:10:06.457Z,4.80
2018-12-26T18:12:36.895Z,5.33
2018-12-26T18:15:09.661Z,5.43
2018-12-26T18:17:40.556Z,5.10
2018-12-26T18:20:11.636Z,4.73
2018-12-26T18:22:42.242Z,4.90
2018-12-26T18:25:12.623Z,4.33
2018-12-26T18:27:43.063Z,5.47
2018-12-26T18:30:13.358Z,5.57
2018-12-26T18:32:43.691Z,5.07
2018-12-26T18:35:14.009Z,6.73
2018-12-26T18:37:44.866Z,5.73
2018-12-26T18:40:15.296Z,5.10
2018-12-26T18:42:45.778Z,5.20
2018-12-26T18:45:16.071Z,6.13
2018-12-26T18:47:46.530Z,5.27
2018-12-26T18:50:16.926Z,5.53
2018-12-26T18:52:47.585Z,5.27
2018-12-26T18:55:17.885Z,5.07
2018-12-26T18:57:48.274Z,5.57
2018-12-26T19:00:18.624Z,4.80
2018-12-26T19:02:49.745Z,5.97
2018-12-26T19:05:20.092Z,5.87
2018-12-26T19:07:50.359Z,5.10
2018-12-26T19:10:20.839Z,4.90
2018-12-26T19:12:51.118Z,5.23
2018-12-26T19:15:21.499Z,5.47
2018-12-26T19:17:51.773Z,4.60
2018-12-26T19:20:22.403Z,4.83
2018-12-26T19:22:52.780Z,5.30
2018-12-26T19:25:23.104Z,5.37
2018-12-26T19:27:53.456Z,5.57
2018-12-26T19:30:23.782Z,5.77
2018-12-26T19:32:54.163Z,5.30
2018-12-26T19:35:24.475Z,5.67
2018-12-26T19:37:54.988Z,5.13
2018-12-26T19:40:25.520Z,5.03
2018-12-26T19:42:57.214Z,4.77
2018-12-26T19:45:27.502Z,5.47
2018-12-26T19:47:57.866Z,5.77
2018-12-26T19:50:28.227Z,4.97
2018-12-26T19:52:58.553Z,5.77
2018-12-26T19:55:28.993Z,5.87
2018-12-26T19:57:59.360Z,5.70
2018-12-26T20:00:30.993Z,5.53
2018-12-26T20:03:01.335Z,5.70
2018-12-26T20:05:31.708Z,6.40
2018-12-26T20:08:01.985Z,5.73
2018-12-26T20:10:32.310Z,5.70
2018-12-26T20:13:04.165Z,5.60
2018-12-26T20:15:36.011Z,5.60
2018-12-26T20:18:06.362Z,6.03
2018-12-26T20:20:37.613Z,5.10
2018-12-26T20:23:07.895Z,6.03
2018-12-26T20:25:38.732Z,5.97
2018-12-26T20:28:09.119Z,5.53
2018-12-26T20:30:39.459Z,5.83
2018-12-26T20:33:10.000Z,5.43
2018-12-26T20:35:40.325Z,5.50
2018-12-26T20:38:10.585Z,5.93
2018-12-26T20:40:40.901Z,5.50
2018-12-26T20:43:11.229Z,5.20
2018-12-26T20:45:41.524Z,5.30
2018-12-26T20:48:11.836Z,5.10
2018-12-26T20:50:42.127Z,5.27
2018-12-26T20:53:12.394Z,5.23
2018-12-26T20:55:42.745Z,4.50
2018-12-26T20:58:13.094Z,4.80
2018-12-26T21:00:43.360Z,5.10
2018-12-26T21:03:13.671Z,4.83
2018-12-26T21:05:43.983Z,4.80
2018-12-26T21:08:14.385Z,5.30
2018-12-26T21:10:44.787Z,5.47
2018-12-26T21:13:15.042Z,5.60
2018-12-26T21:15:45.333Z,5.73
2018-12-26T21:18:15.658Z,6.30
2018-12-26T21:20:45.961Z,6.83
2018-12-26T21:23:16.235Z,7.30
2018-12-26T21:25:48.884Z,7.00
2018-12-26T21:28:19.196Z,7.10
2018-12-26T21:30:49.487Z,7.80
2018-12-26T21:33:19.789Z,6.70
2018-12-26T21:35:50.098Z,7.60
2018-12-26T21:38:21.282Z,8.20
2018-12-26T21:40:51.728Z,7.27
2018-12-26T21:43:21.986Z,7.33
2018-12-26T21:45:52.306Z,7.67
2018-12-26T21:48:22.519Z,8.67
2018-12-26T21:50:52.827Z,9.33
2018-12-26T21:53:23.186Z,9.30
2018-12-26T21:55:53.798Z,10.37
2018-12-26T21:58:24.102Z,9.47
2018-12-26T22:00:54.782Z,8.87
2018-12-26T22:03:25.112Z,8.57
2018-12-26T22:05:55.532Z,9.60
2018-12-26T22:08:25.911Z,8.57
2018-12-26T22:10:56.264Z,8.97
2018-12-26T22:13:26.580Z,7.93
2018-12-26T22:15:56.872Z,8.77
2018-12-26T22:18:27.259Z,8.03
2018-12-26T22:20:57.717Z,8.67
2018-12-26T22:23:28.180Z,8.53
2018-12-26T22:25:59.637Z,9.20
2018-12-26T22:28:29.997Z,8.63
2018-12-26T22:31:00.241Z,8.97
2018-12-26T22:33:30.612Z,9.10
2018-12-26T22:36:00.995Z,8.97
2018-12-26T22:38:31.709Z,8.80
2018-12-26T22:41:02.033Z,8.63
2018-12-26T22:43:32.455Z,9.37
2018-12-26T22:46:02.777Z,9.30
2018-12-26T22:48:34.916Z,9.33
2018-12-26T22:51:05.201Z,10.13
2018-12-26T22:53:35.582Z,10.23
2018-12-26T22:56:07.121Z,10.17
2018-12-26T22:58:37.431Z,10.83
2018-12-26T23:01:07.875Z,9.53
2018-12-26T23:03:38.340Z,10.60
2018-12-26T23:06:08.735Z,10.43
2018-12-26T23:08:44.989Z,10.67
2018-12-26T23:11:17.481Z,11.37
2018-12-26T23:13:48.201Z,11.60
2018-12-26T23:16:18.495Z,11.33
2018-12-26T23:18:48.951Z,10.80
2018-12-26T23:21:19.563Z,11.90
2018-12-26T23:23:49.945Z,13.20
2018-12-26T23:26:20.505Z,14.17
2018-12-26T23:28:50.912Z,14.00
2018-12-26T23:31:21.336Z,16.63
2018-12-26T23:34:20.226Z,17.70
2018-12-26T23:36:51.919Z,17.30
2018-12-26T23:39:22.191Z,17.70
2018-12-26T23:41:52.570Z,14.73
2018-12-26T23:44:22.933Z,15.40
2018-12-26T23:46:53.167Z,15.27
2018-12-26T23:49:23.471Z,15.00
2018-12-26T23:51:53.759Z,14.20
2018-12-26T23:54:24.067Z,14.83
2018-12-26T23:56:54.424Z,15.73
2018-12-26T23:59:24.745Z,14.37
